sensor_id;sensor_type;location;lat;lon;timestamp;temperature;humidity
5276;DHT22;2661;50.786;12.728;2023-05-20T00:01:39;12.20;99.90
5276;DHT22;2661;50.786;12.728;2023-05-20T00:04:06;12.20;99.90
5276;DHT22;2661;50.786;12.728;2023-05-20T00:06:34;12.10;99.90
5276;DHT22;2661;50.786;12.728;2023-05-20T00:09:01;12.20;99.90
5276;DHT22;2661;50.786;12.728;2023-05-20T00:11:29;12.20;99.90
5276;DHT22;2661;50.786;12.728;2023-05-20T00:13:56;12.20;99.90
5276;DHT22;2661;50.786;12.728;2023-05-20T00:16:23;12.20;99.90
5276;DHT22;2661;50.786;12.728;2023-05-20T00:18:50;12.00;99.90
5276;DHT22;2661;50.786;12.728;2023-05-20T00:21:16;12.00;99.90
5276;DHT22;2661;50.786;12.728;2023-05-20T00:23:43;12.10;99.90
5276;DHT22;2661;50.786;12.728;2023-05-20T00:26:10;12.00;99.90
5276;DHT22;2661;50.786;12.728;2023-05-20T00:28:37;12.00;99.90
5276;DHT22;2661;50.786;12.728;2023-05-20T00:31:03;12.00;99.90
5276;DHT22;2661;50.786;12.728;2023-05-20T00:33:30;12.00;99.90
5276;DHT22;2661;50.786;12.728;2023-05-20T00:35:57;12.10;99.90
5276;DHT22;2661;50.786;12.728;2023-05-20T00:38:23;12.10;99.90
5276;DHT22;2661;50.786;12.728;2023-05-20T00:40:50;12.00;99.90
5276;DHT22;2661;50.786;12.728;2023-05-20T00:43:16;12.00;99.90
5276;DHT22;2661;50.786;12.728;2023-05-20T00:45:43;11.90;99.90
5276;DHT22;2661;50.786;12.728;2023-05-20T00:48:10;11.80;99.90
5276;DHT22;2661;50.786;12.728;2023-05-20T00:50:37;11.70;99.90
5276;DHT22;2661;50.786;12.728;2023-05-20T00:53:04;11.70;99.90
5276;DHT22;2661;50.786;12.728;2023-05-20T00:55:31;11.70;99.90
5276;DHT22;2661;50.786;12.728;2023-05-20T00:57:58;11.70;99.90
5276;DHT22;2661;50.786;12.728;2023-05-20T01:00:25;11.60;99.90
5276;DHT22;2661;50.786;12.728;2023-05-20T01:02:51;11.60;99.90
5276;DHT22;2661;50.786;12.728;2023-05-20T01:05:18;11.50;99.90
5276;DHT22;2661;50.786;12.728;2023-05-20T01:07:45;11.50;99.90
5276;DHT22;2661;50.786;12.728;2023-05-20T01:10:12;11.50;99.90
5276;DHT22;2661;50.786;12.728;2023-05-20T01:12:42;11.50;99.90
5276;DHT22;2661;50.786;12.728;2023-05-20T01:15:11;11.50;99.90
5276;DHT22;2661;50.786;12.728;2023-05-20T01:17:41;11.50;99.90
5276;DHT22;2661;50.786;12.728;2023-05-20T01:20:10;11.40;99.90
5276;DHT22;2661;50.786;12.728;2023-05-20T01:22:48;11.40;99.90
5276;DHT22;2661;50.786;12.728;2023-05-20T01:25:15;11.50;99.90
5276;DHT22;2661;50.786;12.728;2023-05-20T01:27:41;11.50;99.90
5276;DHT22;2661;50.786;12.728;2023-05-20T01:30:08;11.40;99.90
5276;DHT22;2661;50.786;12.728;2023-05-20T01:32:42;11.40;99.90
5276;DHT22;2661;50.786;12.728;2023-05-20T01:35:09;11.50;99.90
5276;DHT22;2661;50.786;12.728;2023-05-20T01:37:37;11.40;99.90
5276;DHT22;2661;50.786;12.728;2023-05-20T01:40:07;11.50;99.90
5276;DHT22;2661;50.786;12.728;2023-05-20T01:42:34;11.50;99.90
5276;DHT22;2661;50.786;12.728;2023-05-20T01:45:02;11.50;99.90
5276;DHT22;2661;50.786;12.728;2023-05-20T01:47:29;11.50;99.90
5276;DHT22;2661;50.786;12.728;2023-05-20T01:49:56;11.60;99.90
5276;DHT22;2661;50.786;12.728;2023-05-20T01:52:22;11.60;99.90
5276;DHT22;2661;50.786;12.728;2023-05-20T01:54:49;11.60;99.90
5276;DHT22;2661;50.786;12.728;2023-05-20T01:57:19;11.50;99.90
5276;DHT22;2661;50.786;12.728;2023-05-20T01:59:46;11.50;99.90
5276;DHT22;2661;50.786;12.728;2023-05-20T02:02:13;11.60;99.90
5276;DHT22;2661;50.786;12.728;2023-05-20T02:04:41;11.60;99.90
5276;DHT22;2661;50.786;12.728;2023-05-20T02:07:09;11.50;99.90
5276;DHT22;2661;50.786;12.728;2023-05-20T02:09:36;11.50;99.90
5276;DHT22;2661;50.786;12.728;2023-05-20T02:12:03;11.50;99.90
5276;DHT22;2661;50.786;12.728;2023-05-20T02:14:29;11.50;99.90
5276;DHT22;2661;50.786;12.728;2023-05-20T02:16:56;11.60;99.90
5276;DHT22;2661;50.786;12.728;2023-05-20T02:19:23;11.60;99.90
5276;DHT22;2661;50.786;12.728;2023-05-20T02:21:50;11.60;99.90
5276;DHT22;2661;50.786;12.728;2023-05-20T02:24:16;11.40;99.90
5276;DHT22;2661;50.786;12.728;2023-05-20T02:26:44;11.40;99.90
5276;DHT22;2661;50.786;12.728;2023-05-20T02:29:12;11.30;99.90
5276;DHT22;2661;50.786;12.728;2023-05-20T02:31:40;11.20;99.90
5276;DHT22;2661;50.786;12.728;2023-05-20T02:34:07;11.20;99.90
5276;DHT22;2661;50.786;12.728;2023-05-20T02:36:33;11.10;99.90
5276;DHT22;2661;50.786;12.728;2023-05-20T02:39:00;11.00;99.90
5276;DHT22;2661;50.786;12.728;2023-05-20T02:41:27;11.00;99.90
5276;DHT22;2661;50.786;12.728;2023-05-20T02:43:53;10.90;99.90
5276;DHT22;2661;50.786;12.728;2023-05-20T02:46:20;10.90;99.90
5276;DHT22;2661;50.786;12.728;2023-05-20T02:48:46;10.80;99.90
5276;DHT22;2661;50.786;12.728;2023-05-20T02:51:13;10.80;99.90
5276;DHT22;2661;50.786;12.728;2023-05-20T02:53:40;10.80;99.90
5276;DHT22;2661;50.786;12.728;2023-05-20T02:56:06;10.80;99.90
5276;DHT22;2661;50.786;12.728;2023-05-20T02:58:34;10.80;99.90
5276;DHT22;2661;50.786;12.728;2023-05-20T03:01:01;10.80;99.90
5276;DHT22;2661;50.786;12.728;2023-05-20T03:03:28;10.80;99.90
5276;DHT22;2661;50.786;12.728;2023-05-20T03:05:54;10.80;99.90
5276;DHT22;2661;50.786;12.728;2023-05-20T03:08:21;10.80;99.90
5276;DHT22;2661;50.786;12.728;2023-05-20T03:10:48;10.80;99.90
5276;DHT22;2661;50.786;12.728;2023-05-20T03:13:15;10.80;99.90
5276;DHT22;2661;50.786;12.728;2023-05-20T03:15:41;10.80;99.90
5276;DHT22;2661;50.786;12.728;2023-05-20T03:18:10;10.80;99.90
5276;DHT22;2661;50.786;12.728;2023-05-20T03:20:39;10.80;99.90
5276;DHT22;2661;50.786;12.728;2023-05-20T03:23:07;10.70;99.90
5276;DHT22;2661;50.786;12.728;2023-05-20T03:25:34;10.70;99.90
5276;DHT22;2661;50.786;12.728;2023-05-20T03:28:01;10.70;99.90
5276;DHT22;2661;50.786;12.728;2023-05-20T03:30:28;10.70;99.90
5276;DHT22;2661;50.786;12.728;2023-05-20T03:32:55;10.70;99.90
5276;DHT22;2661;50.786;12.728;2023-05-20T03:35:23;10.80;99.90
5276;DHT22;2661;50.786;12.728;2023-05-20T03:37:50;10.70;99.90
5276;DHT22;2661;50.786;12.728;2023-05-20T03:40:19;10.70;99.90
5276;DHT22;2661;50.786;12.728;2023-05-20T03:42:48;10.70;99.90
5276;DHT22;2661;50.786;12.728;2023-05-20T03:45:17;10.60;99.90
5276;DHT22;2661;50.786;12.728;2023-05-20T03:47:44;10.70;99.90
5276;DHT22;2661;50.786;12.728;2023-05-20T03:50:10;10.80;99.90
5276;DHT22;2661;50.786;12.728;2023-05-20T03:52:37;10.70;99.90
5276;DHT22;2661;50.786;12.728;2023-05-20T03:55:04;10.70;99.90
5276;DHT22;2661;50.786;12.728;2023-05-20T03:57:30;10.80;99.90
5276;DHT22;2661;50.786;12.728;2023-05-20T03:59:57;10.90;99.90
5276;DHT22;2661;50.786;12.728;2023-05-20T04:02:24;10.90;99.90
5276;DHT22;2661;50.786;12.728;2023-05-20T04:04:51;10.90;99.90
5276;DHT22;2661;50.786;12.728;2023-05-20T04:07:19;10.90;99.90
5276;DHT22;2661;50.786;12.728;2023-05-20T04:09:45;10.90;99.90
5276;DHT22;2661;50.786;12.728;2023-05-20T04:12:12;11.00;99.90
5276;DHT22;2661;50.786;12.728;2023-05-20T04:14:39;10.90;99.90
5276;DHT22;2661;50.786;12.728;2023-05-20T04:17:07;10.90;99.90
5276;DHT22;2661;50.786;12.728;2023-05-20T04:19:35;10.90;99.90
5276;DHT22;2661;50.786;12.728;2023-05-20T04:22:03;10.90;99.90
5276;DHT22;2661;50.786;12.728;2023-05-20T04:24:30;10.90;99.90
5276;DHT22;2661;50.786;12.728;2023-05-20T04:26:57;11.00;99.90
5276;DHT22;2661;50.786;12.728;2023-05-20T04:29:23;11.00;99.90
5276;DHT22;2661;50.786;12.728;2023-05-20T04:31:50;11.00;99.90
5276;DHT22;2661;50.786;12.728;2023-05-20T04:34:17;11.00;99.90
5276;DHT22;2661;50.786;12.728;2023-05-20T04:36:45;11.10;99.90
5276;DHT22;2661;50.786;12.728;2023-05-20T04:39:12;11.00;99.90
5276;DHT22;2661;50.786;12.728;2023-05-20T04:41:41;11.00;99.90
5276;DHT22;2661;50.786;12.728;2023-05-20T04:44:08;11.10;99.90
5276;DHT22;2661;50.786;12.728;2023-05-20T04:46:35;11.10;99.90
5276;DHT22;2661;50.786;12.728;2023-05-20T04:49:01;11.20;99.90
5276;DHT22;2661;50.786;12.728;2023-05-20T04:51:30;11.20;99.90
5276;DHT22;2661;50.786;12.728;2023-05-20T04:53:56;11.20;99.90
5276;DHT22;2661;50.786;12.728;2023-05-20T04:56:24;11.20;99.90
5276;DHT22;2661;50.786;12.728;2023-05-20T04:58:51;11.10;99.90
5276;DHT22;2661;50.786;12.728;2023-05-20T05:01:18;11.10;99.90
5276;DHT22;2661;50.786;12.728;2023-05-20T05:03:44;11.20;99.90
5276;DHT22;2661;50.786;12.728;2023-05-20T05:06:11;11.20;99.90
5276;DHT22;2661;50.786;12.728;2023-05-20T05:08:38;11.20;99.90
5276;DHT22;2661;50.786;12.728;2023-05-20T05:11:05;11.30;99.90
5276;DHT22;2661;50.786;12.728;2023-05-20T05:13:32;11.40;99.90
5276;DHT22;2661;50.786;12.728;2023-05-20T05:15:59;11.40;99.90
5276;DHT22;2661;50.786;12.728;2023-05-20T05:18:26;11.40;99.90
5276;DHT22;2661;50.786;12.728;2023-05-20T05:21:02;11.40;99.90
5276;DHT22;2661;50.786;12.728;2023-05-20T05:23:29;11.40;99.90
5276;DHT22;2661;50.786;12.728;2023-05-20T05:25:56;11.50;99.90
5276;DHT22;2661;50.786;12.728;2023-05-20T05:28:24;11.60;99.90
5276;DHT22;2661;50.786;12.728;2023-05-20T05:30:53;11.70;99.90
5276;DHT22;2661;50.786;12.728;2023-05-20T05:33:19;11.70;99.90
5276;DHT22;2661;50.786;12.728;2023-05-20T05:35:46;11.80;99.90
5276;DHT22;2661;50.786;12.728;2023-05-20T05:38:13;11.80;99.90
5276;DHT22;2661;50.786;12.728;2023-05-20T05:40:43;11.90;99.90
5276;DHT22;2661;50.786;12.728;2023-05-20T05:43:11;12.00;99.90
5276;DHT22;2661;50.786;12.728;2023-05-20T05:45:40;11.90;99.90
5276;DHT22;2661;50.786;12.728;2023-05-20T05:48:08;11.90;99.90
5276;DHT22;2661;50.786;12.728;2023-05-20T05:50:35;12.00;99.90
5276;DHT22;2661;50.786;12.728;2023-05-20T05:53:01;12.10;99.90
5276;DHT22;2661;50.786;12.728;2023-05-20T05:55:30;12.10;99.90
5276;DHT22;2661;50.786;12.728;2023-05-20T05:57:57;12.20;99.90
5276;DHT22;2661;50.786;12.728;2023-05-20T06:00:25;12.20;99.90
5276;DHT22;2661;50.786;12.728;2023-05-20T06:02:52;12.30;99.90
5276;DHT22;2661;50.786;12.728;2023-05-20T06:05:19;12.30;99.90
5276;DHT22;2661;50.786;12.728;2023-05-20T06:07:46;12.40;99.90
5276;DHT22;2661;50.786;12.728;2023-05-20T06:10:14;12.50;99.90
5276;DHT22;2661;50.786;12.728;2023-05-20T06:12:40;12.60;99.90
5276;DHT22;2661;50.786;12.728;2023-05-20T06:15:07;12.60;99.90
5276;DHT22;2661;50.786;12.728;2023-05-20T06:17:34;12.70;99.90
5276;DHT22;2661;50.786;12.728;2023-05-20T06:20:01;12.70;99.90
5276;DHT22;2661;50.786;12.728;2023-05-20T06:22:27;12.70;99.90
5276;DHT22;2661;50.786;12.728;2023-05-20T06:24:54;12.80;99.90
5276;DHT22;2661;50.786;12.728;2023-05-20T06:27:22;12.80;99.90
5276;DHT22;2661;50.786;12.728;2023-05-20T06:29:49;12.90;99.90
5276;DHT22;2661;50.786;12.728;2023-05-20T06:32:16;12.80;99.90
5276;DHT22;2661;50.786;12.728;2023-05-20T06:34:42;12.90;99.90
5276;DHT22;2661;50.786;12.728;2023-05-20T06:37:09;12.80;99.90
5276;DHT22;2661;50.786;12.728;2023-05-20T06:39:37;12.80;99.90
5276;DHT22;2661;50.786;12.728;2023-05-20T06:42:03;12.70;99.90
5276;DHT22;2661;50.786;12.728;2023-05-20T06:44:30;12.80;99.90
5276;DHT22;2661;50.786;12.728;2023-05-20T06:46:57;12.80;99.90
5276;DHT22;2661;50.786;12.728;2023-05-20T06:49:23;12.80;99.90
5276;DHT22;2661;50.786;12.728;2023-05-20T06:51:51;12.90;99.90
5276;DHT22;2661;50.786;12.728;2023-05-20T06:54:17;12.90;99.90
5276;DHT22;2661;50.786;12.728;2023-05-20T06:56:44;12.90;99.90
5276;DHT22;2661;50.786;12.728;2023-05-20T06:59:11;13.00;99.90
5276;DHT22;2661;50.786;12.728;2023-05-20T07:01:37;12.90;99.90
5276;DHT22;2661;50.786;12.728;2023-05-20T07:04:04;12.90;99.90
5276;DHT22;2661;50.786;12.728;2023-05-20T07:06:31;12.80;99.90
5276;DHT22;2661;50.786;12.728;2023-05-20T07:08:57;12.90;99.90
5276;DHT22;2661;50.786;12.728;2023-05-20T07:11:25;13.00;99.90
5276;DHT22;2661;50.786;12.728;2023-05-20T07:13:52;12.90;99.90
5276;DHT22;2661;50.786;12.728;2023-05-20T07:16:19;12.90;99.90
5276;DHT22;2661;50.786;12.728;2023-05-20T07:18:45;12.90;99.90
5276;DHT22;2661;50.786;12.728;2023-05-20T07:21:12;13.00;99.90
5276;DHT22;2661;50.786;12.728;2023-05-20T07:23:39;13.00;99.90
5276;DHT22;2661;50.786;12.728;2023-05-20T07:26:06;13.00;99.90
5276;DHT22;2661;50.786;12.728;2023-05-20T07:28:32;13.20;99.90
5276;DHT22;2661;50.786;12.728;2023-05-20T07:30:59;13.30;99.90
5276;DHT22;2661;50.786;12.728;2023-05-20T07:33:26;13.40;99.90
5276;DHT22;2661;50.786;12.728;2023-05-20T07:35:53;13.50;99.90
5276;DHT22;2661;50.786;12.728;2023-05-20T07:38:20;13.60;99.90
5276;DHT22;2661;50.786;12.728;2023-05-20T07:40:46;13.70;99.90
5276;DHT22;2661;50.786;12.728;2023-05-20T07:43:13;13.80;99.90
5276;DHT22;2661;50.786;12.728;2023-05-20T07:45:39;13.80;99.90
5276;DHT22;2661;50.786;12.728;2023-05-20T07:48:06;13.90;99.90
5276;DHT22;2661;50.786;12.728;2023-05-20T07:50:35;13.90;99.90
5276;DHT22;2661;50.786;12.728;2023-05-20T07:53:01;14.00;99.90
5276;DHT22;2661;50.786;12.728;2023-05-20T07:55:28;13.70;99.90
5276;DHT22;2661;50.786;12.728;2023-05-20T07:57:55;14.00;99.90
5276;DHT22;2661;50.786;12.728;2023-05-20T08:00:21;13.90;99.90
5276;DHT22;2661;50.786;12.728;2023-05-20T08:02:48;13.90;99.90
5276;DHT22;2661;50.786;12.728;2023-05-20T08:05:15;13.90;99.90
5276;DHT22;2661;50.786;12.728;2023-05-20T08:07:42;14.00;99.90
5276;DHT22;2661;50.786;12.728;2023-05-20T08:10:08;14.00;99.90
5276;DHT22;2661;50.786;12.728;2023-05-20T08:12:35;14.00;99.90
5276;DHT22;2661;50.786;12.728;2023-05-20T08:15:02;14.10;99.90
5276;DHT22;2661;50.786;12.728;2023-05-20T08:17:28;14.20;99.90
5276;DHT22;2661;50.786;12.728;2023-05-20T08:19:55;14.20;99.90
5276;DHT22;2661;50.786;12.728;2023-05-20T08:22:22;14.20;99.90
5276;DHT22;2661;50.786;12.728;2023-05-20T08:24:48;14.30;99.90
5276;DHT22;2661;50.786;12.728;2023-05-20T08:27:15;14.30;99.90
5276;DHT22;2661;50.786;12.728;2023-05-20T08:29:43;14.30;99.90
5276;DHT22;2661;50.786;12.728;2023-05-20T08:32:09;14.40;99.90
5276;DHT22;2661;50.786;12.728;2023-05-20T08:34:36;14.50;99.90
5276;DHT22;2661;50.786;12.728;2023-05-20T08:37:03;14.60;99.90
5276;DHT22;2661;50.786;12.728;2023-05-20T08:39:29;14.70;99.90
5276;DHT22;2661;50.786;12.728;2023-05-20T08:41:56;14.70;99.90
5276;DHT22;2661;50.786;12.728;2023-05-20T08:44:23;14.80;99.90
5276;DHT22;2661;50.786;12.728;2023-05-20T08:46:51;14.80;99.90
5276;DHT22;2661;50.786;12.728;2023-05-20T08:49:18;14.90;99.90
5276;DHT22;2661;50.786;12.728;2023-05-20T08:51:45;14.90;99.90
5276;DHT22;2661;50.786;12.728;2023-05-20T08:54:12;15.10;99.90
5276;DHT22;2661;50.786;12.728;2023-05-20T08:56:40;15.10;99.90
5276;DHT22;2661;50.786;12.728;2023-05-20T08:59:07;15.10;99.90
5276;DHT22;2661;50.786;12.728;2023-05-20T09:01:35;15.20;99.90
5276;DHT22;2661;50.786;12.728;2023-05-20T09:04:05;15.20;99.90
5276;DHT22;2661;50.786;12.728;2023-05-20T09:06:41;15.30;99.90
5276;DHT22;2661;50.786;12.728;2023-05-20T09:09:09;15.30;99.90
5276;DHT22;2661;50.786;12.728;2023-05-20T09:11:36;15.40;99.90
5276;DHT22;2661;50.786;12.728;2023-05-20T09:14:02;15.40;99.90
5276;DHT22;2661;50.786;12.728;2023-05-20T09:16:29;15.50;99.90
5276;DHT22;2661;50.786;12.728;2023-05-20T09:18:56;15.50;99.90
5276;DHT22;2661;50.786;12.728;2023-05-20T09:21:26;15.50;99.90
5276;DHT22;2661;50.786;12.728;2023-05-20T09:23:54;15.50;99.90
5276;DHT22;2661;50.786;12.728;2023-05-20T09:26:22;15.60;99.90
5276;DHT22;2661;50.786;12.728;2023-05-20T09:28:50;15.60;99.90
5276;DHT22;2661;50.786;12.728;2023-05-20T09:31:16;15.50;99.90
5276;DHT22;2661;50.786;12.728;2023-05-20T09:33:43;15.50;99.90
5276;DHT22;2661;50.786;12.728;2023-05-20T09:36:10;15.50;99.90
5276;DHT22;2661;50.786;12.728;2023-05-20T09:38:37;15.50;99.90
5276;DHT22;2661;50.786;12.728;2023-05-20T09:41:06;15.50;99.90
5276;DHT22;2661;50.786;12.728;2023-05-20T09:43:34;15.60;99.90
5276;DHT22;2661;50.786;12.728;2023-05-20T09:46:02;15.50;99.90
5276;DHT22;2661;50.786;12.728;2023-05-20T09:48:29;15.60;99.90
5276;DHT22;2661;50.786;12.728;2023-05-20T09:50:59;15.70;99.90
5276;DHT22;2661;50.786;12.728;2023-05-20T09:53:26;15.70;99.90
5276;DHT22;2661;50.786;12.728;2023-05-20T09:55:54;15.80;99.90
5276;DHT22;2661;50.786;12.728;2023-05-20T09:58:21;15.80;99.90
5276;DHT22;2661;50.786;12.728;2023-05-20T10:00:48;15.80;99.90
5276;DHT22;2661;50.786;12.728;2023-05-20T10:03:15;15.90;99.90
5276;DHT22;2661;50.786;12.728;2023-05-20T10:05:44;15.90;99.90
5276;DHT22;2661;50.786;12.728;2023-05-20T10:08:22;16.00;99.90
5276;DHT22;2661;50.786;12.728;2023-05-20T10:13:44;16.00;99.90
5276;DHT22;2661;50.786;12.728;2023-05-20T10:18:48;16.20;99.90
5276;DHT22;2661;50.786;12.728;2023-05-20T10:21:19;16.20;99.90
5276;DHT22;2661;50.786;12.728;2023-05-20T10:23:47;16.30;99.90
5276;DHT22;2661;50.786;12.728;2023-05-20T10:26:14;16.40;99.90
5276;DHT22;2661;50.786;12.728;2023-05-20T10:28:41;16.40;99.90
5276;DHT22;2661;50.786;12.728;2023-05-20T10:31:21;16.50;99.90
5276;DHT22;2661;50.786;12.728;2023-05-20T10:33:48;16.50;99.90
5276;DHT22;2661;50.786;12.728;2023-05-20T10:36:27;16.50;99.90
5276;DHT22;2661;50.786;12.728;2023-05-20T10:38:54;16.50;99.90
5276;DHT22;2661;50.786;12.728;2023-05-20T10:41:25;16.70;99.90
5276;DHT22;2661;50.786;12.728;2023-05-20T10:43:58;16.70;99.90
5276;DHT22;2661;50.786;12.728;2023-05-20T10:46:24;16.70;99.90
5276;DHT22;2661;50.786;12.728;2023-05-20T10:49:19;16.70;99.90
5276;DHT22;2661;50.786;12.728;2023-05-20T10:51:50;16.90;99.90
5276;DHT22;2661;50.786;12.728;2023-05-20T10:54:17;16.90;99.90
5276;DHT22;2661;50.786;12.728;2023-05-20T10:56:50;17.10;99.90
5276;DHT22;2661;50.786;12.728;2023-05-20T10:59:17;17.20;99.90
5276;DHT22;2661;50.786;12.728;2023-05-20T11:01:44;17.20;99.90
5276;DHT22;2661;50.786;12.728;2023-05-20T11:04:12;17.20;99.90
5276;DHT22;2661;50.786;12.728;2023-05-20T11:06:48;17.20;99.90
5276;DHT22;2661;50.786;12.728;2023-05-20T11:09:15;17.30;99.90
5276;DHT22;2661;50.786;12.728;2023-05-20T11:11:41;17.30;99.90
5276;DHT22;2661;50.786;12.728;2023-05-20T11:14:08;17.40;99.90
5276;DHT22;2661;50.786;12.728;2023-05-20T11:16:39;17.40;99.90
5276;DHT22;2661;50.786;12.728;2023-05-20T11:19:06;17.50;99.90
5276;DHT22;2661;50.786;12.728;2023-05-20T11:21:33;17.50;99.90
5276;DHT22;2661;50.786;12.728;2023-05-20T11:24:00;17.60;99.90
5276;DHT22;2661;50.786;12.728;2023-05-20T11:26:27;17.60;99.90
5276;DHT22;2661;50.786;12.728;2023-05-20T11:28:54;17.60;99.90
5276;DHT22;2661;50.786;12.728;2023-05-20T11:31:21;17.60;99.90
5276;DHT22;2661;50.786;12.728;2023-05-20T11:33:49;17.70;99.90
5276;DHT22;2661;50.786;12.728;2023-05-20T11:36:17;17.80;99.90
5276;DHT22;2661;50.786;12.728;2023-05-20T11:38:53;17.90;99.90
5276;DHT22;2661;50.786;12.728;2023-05-20T11:41:23;18.00;99.90
5276;DHT22;2661;50.786;12.728;2023-05-20T11:43:57;18.00;99.90
5276;DHT22;2661;50.786;12.728;2023-05-20T11:46:25;18.10;99.90
5276;DHT22;2661;50.786;12.728;2023-05-20T11:48:54;18.10;99.90
5276;DHT22;2661;50.786;12.728;2023-05-20T11:51:27;18.30;99.90
5276;DHT22;2661;50.786;12.728;2023-05-20T11:54:00;18.40;99.90
5276;DHT22;2661;50.786;12.728;2023-05-20T11:56:28;18.60;99.90
5276;DHT22;2661;50.786;12.728;2023-05-20T11:58:56;18.80;99.90
5276;DHT22;2661;50.786;12.728;2023-05-20T12:01:23;18.90;99.90
5276;DHT22;2661;50.786;12.728;2023-05-20T12:03:50;18.90;99.90
5276;DHT22;2661;50.786;12.728;2023-05-20T12:06:17;18.90;99.90
5276;DHT22;2661;50.786;12.728;2023-05-20T12:08:44;19.00;99.90
5276;DHT22;2661;50.786;12.728;2023-05-20T12:11:12;18.90;99.90
5276;DHT22;2661;50.786;12.728;2023-05-20T12:13:38;18.80;99.90
5276;DHT22;2661;50.786;12.728;2023-05-20T12:16:05;18.90;99.90
5276;DHT22;2661;50.786;12.728;2023-05-20T12:18:32;18.90;99.90
5276;DHT22;2661;50.786;12.728;2023-05-20T12:20:59;18.90;99.90
5276;DHT22;2661;50.786;12.728;2023-05-20T12:23:26;19.00;99.90
5276;DHT22;2661;50.786;12.728;2023-05-20T12:25:52;19.00;99.90
5276;DHT22;2661;50.786;12.728;2023-05-20T12:28:20;19.10;99.90
5276;DHT22;2661;50.786;12.728;2023-05-20T12:30:46;19.20;99.90
5276;DHT22;2661;50.786;12.728;2023-05-20T12:33:13;19.30;99.90
5276;DHT22;2661;50.786;12.728;2023-05-20T12:35:40;19.40;99.90
5276;DHT22;2661;50.786;12.728;2023-05-20T12:38:07;19.30;99.90
5276;DHT22;2661;50.786;12.728;2023-05-20T12:40:34;19.40;99.90
5276;DHT22;2661;50.786;12.728;2023-05-20T12:43:02;19.50;99.90
5276;DHT22;2661;50.786;12.728;2023-05-20T12:45:29;19.60;99.90
5276;DHT22;2661;50.786;12.728;2023-05-20T12:47:56;19.50;99.90
5276;DHT22;2661;50.786;12.728;2023-05-20T12:50:23;19.50;99.90
5276;DHT22;2661;50.786;12.728;2023-05-20T12:52:50;19.40;99.90
5276;DHT22;2661;50.786;12.728;2023-05-20T12:55:16;19.40;99.90
5276;DHT22;2661;50.786;12.728;2023-05-20T12:57:43;19.40;99.90
5276;DHT22;2661;50.786;12.728;2023-05-20T13:00:11;19.50;99.90
5276;DHT22;2661;50.786;12.728;2023-05-20T13:02:38;19.60;99.90
5276;DHT22;2661;50.786;12.728;2023-05-20T13:05:05;19.70;99.90
5276;DHT22;2661;50.786;12.728;2023-05-20T13:07:32;19.70;99.90
5276;DHT22;2661;50.786;12.728;2023-05-20T13:09:59;19.80;99.90
5276;DHT22;2661;50.786;12.728;2023-05-20T13:12:26;19.80;99.90
5276;DHT22;2661;50.786;12.728;2023-05-20T13:14:53;19.90;99.90
5276;DHT22;2661;50.786;12.728;2023-05-20T13:17:19;19.90;99.90
5276;DHT22;2661;50.786;12.728;2023-05-20T13:19:46;19.90;99.90
5276;DHT22;2661;50.786;12.728;2023-05-20T13:22:13;19.80;99.90
5276;DHT22;2661;50.786;12.728;2023-05-20T13:24:39;19.60;99.90
5276;DHT22;2661;50.786;12.728;2023-05-20T13:27:06;19.60;99.90
5276;DHT22;2661;50.786;12.728;2023-05-20T13:29:32;19.50;99.90
5276;DHT22;2661;50.786;12.728;2023-05-20T13:31:59;19.60;99.90
5276;DHT22;2661;50.786;12.728;2023-05-20T13:34:28;19.70;99.90
5276;DHT22;2661;50.786;12.728;2023-05-20T13:36:55;19.90;99.90
5276;DHT22;2661;50.786;12.728;2023-05-20T13:39:21;19.80;99.90
5276;DHT22;2661;50.786;12.728;2023-05-20T13:41:48;19.80;99.90
5276;DHT22;2661;50.786;12.728;2023-05-20T13:44:15;19.80;99.90
5276;DHT22;2661;50.786;12.728;2023-05-20T13:46:41;19.70;99.90
5276;DHT22;2661;50.786;12.728;2023-05-20T13:49:08;19.70;99.90
5276;DHT22;2661;50.786;12.728;2023-05-20T13:51:35;19.70;99.90
5276;DHT22;2661;50.786;12.728;2023-05-20T13:54:02;19.80;99.90
5276;DHT22;2661;50.786;12.728;2023-05-20T13:56:29;19.80;99.90
5276;DHT22;2661;50.786;12.728;2023-05-20T13:58:55;19.70;99.90
5276;DHT22;2661;50.786;12.728;2023-05-20T14:01:22;19.70;99.90
5276;DHT22;2661;50.786;12.728;2023-05-20T14:03:49;19.80;99.90
5276;DHT22;2661;50.786;12.728;2023-05-20T14:06:16;19.90;99.90
5276;DHT22;2661;50.786;12.728;2023-05-20T14:08:44;19.90;99.90
5276;DHT22;2661;50.786;12.728;2023-05-20T14:11:11;19.90;99.90
5276;DHT22;2661;50.786;12.728;2023-05-20T14:13:38;19.90;99.90
5276;DHT22;2661;50.786;12.728;2023-05-20T14:16:04;19.80;99.90
5276;DHT22;2661;50.786;12.728;2023-05-20T14:18:31;19.80;99.90
5276;DHT22;2661;50.786;12.728;2023-05-20T14:20:58;19.90;99.90
5276;DHT22;2661;50.786;12.728;2023-05-20T14:23:24;20.00;99.90
5276;DHT22;2661;50.786;12.728;2023-05-20T14:25:51;20.00;99.90
5276;DHT22;2661;50.786;12.728;2023-05-20T14:28:17;20.00;99.90
5276;DHT22;2661;50.786;12.728;2023-05-20T14:30:44;20.00;99.90
5276;DHT22;2661;50.786;12.728;2023-05-20T14:33:11;19.90;99.90
5276;DHT22;2661;50.786;12.728;2023-05-20T14:35:37;19.90;99.90
5276;DHT22;2661;50.786;12.728;2023-05-20T14:38:04;19.90;99.90
5276;DHT22;2661;50.786;12.728;2023-05-20T14:40:30;19.90;99.90
5276;DHT22;2661;50.786;12.728;2023-05-20T14:42:57;19.90;99.90
5276;DHT22;2661;50.786;12.728;2023-05-20T14:45:24;20.00;99.90
5276;DHT22;2661;50.786;12.728;2023-05-20T14:47:50;20.00;99.90
5276;DHT22;2661;50.786;12.728;2023-05-20T14:50:17;20.00;99.90
5276;DHT22;2661;50.786;12.728;2023-05-20T14:52:44;20.10;99.90
5276;DHT22;2661;50.786;12.728;2023-05-20T14:55:10;20.10;99.90
5276;DHT22;2661;50.786;12.728;2023-05-20T14:57:37;20.10;99.90
5276;DHT22;2661;50.786;12.728;2023-05-20T15:00:04;20.20;99.90
5276;DHT22;2661;50.786;12.728;2023-05-20T15:02:30;20.20;99.90
5276;DHT22;2661;50.786;12.728;2023-05-20T15:04:57;20.30;99.90
5276;DHT22;2661;50.786;12.728;2023-05-20T15:07:24;20.30;99.90
5276;DHT22;2661;50.786;12.728;2023-05-20T15:09:52;20.20;99.90
5276;DHT22;2661;50.786;12.728;2023-05-20T15:12:18;20.10;99.90
5276;DHT22;2661;50.786;12.728;2023-05-20T15:14:45;20.00;99.90
5276;DHT22;2661;50.786;12.728;2023-05-20T15:17:12;20.00;99.90
5276;DHT22;2661;50.786;12.728;2023-05-20T15:19:38;19.80;99.90
5276;DHT22;2661;50.786;12.728;2023-05-20T15:22:07;19.80;99.90
5276;DHT22;2661;50.786;12.728;2023-05-20T15:24:33;19.80;99.90
5276;DHT22;2661;50.786;12.728;2023-05-20T15:27:00;19.80;99.90
5276;DHT22;2661;50.786;12.728;2023-05-20T15:29:27;19.90;99.90
5276;DHT22;2661;50.786;12.728;2023-05-20T15:31:53;20.00;99.90
5276;DHT22;2661;50.786;12.728;2023-05-20T15:34:20;20.10;99.90
5276;DHT22;2661;50.786;12.728;2023-05-20T15:36:47;20.20;99.90
5276;DHT22;2661;50.786;12.728;2023-05-20T15:39:13;20.30;99.90
5276;DHT22;2661;50.786;12.728;2023-05-20T15:41:41;20.30;99.90
5276;DHT22;2661;50.786;12.728;2023-05-20T15:44:08;20.30;99.90
5276;DHT22;2661;50.786;12.728;2023-05-20T15:46:34;20.40;99.90
5276;DHT22;2661;50.786;12.728;2023-05-20T15:49:01;20.40;99.90
5276;DHT22;2661;50.786;12.728;2023-05-20T15:51:28;20.40;99.90